createdAt,value
2022-12-13T00:01:56.039Z,16.87
2022-12-13T00:04:24.909Z,19.53
2022-12-13T00:06:54.271Z,21.20
2022-12-13T00:09:22.835Z,16.67
2022-12-13T00:11:50.577Z,18.03
2022-12-13T00:14:18.606Z,21.73
2022-12-13T00:16:49.049Z,19.63
2022-12-13T00:19:19.155Z,22.63
2022-12-13T00:21:46.463Z,22.70
2022-12-13T00:24:14.762Z,19.97
2022-12-13T00:26:42.780Z,19.63
2022-12-13T00:29:11.873Z,19.53
2022-12-13T00:34:27.034Z,18.97
2022-12-13T00:36:55.216Z,18.17
2022-12-13T00:39:23.007Z,20.83
2022-12-13T00:41:50.541Z,22.30
2022-12-13T00:44:19.919Z,18.13
2022-12-13T00:46:47.461Z,16.67
2022-12-13T00:49:14.902Z,15.53
2022-12-13T00:51:42.128Z,17.77
2022-12-13T00:54:11.066Z,18.90
2022-12-13T00:56:38.609Z,15.50
2022-12-13T00:59:06.300Z,17.43
2022-12-13T01:01:36.701Z,16.63
2022-12-13T01:04:07.073Z,18.23
2022-12-13T01:06:45.962Z,18.50
2022-12-13T01:09:21.768Z,15.73
2022-12-13T01:11:50.521Z,19.13
2022-12-13T01:14:20.050Z,18.07
2022-12-13T01:16:47.477Z,20.13
2022-12-13T01:19:15.155Z,17.57
2022-12-13T01:21:42.405Z,19.77
2022-12-13T01:24:10.095Z,18.40
2022-12-13T01:26:37.439Z,18.03
2022-12-13T01:29:05.894Z,18.00
2022-12-13T01:31:33.835Z,17.93
2022-12-13T01:34:10.344Z,16.27
2022-12-13T01:36:38.690Z,14.87
2022-12-13T01:39:14.756Z,17.20
2022-12-13T01:41:45.503Z,28.93
2022-12-13T01:44:56.564Z,29.00
2022-12-13T01:47:55.139Z,24.07
2022-12-13T01:50:32.785Z,18.77
2022-12-13T01:53:01.359Z,18.63
2022-12-13T01:55:41.843Z,18.10
2022-12-13T01:58:10.162Z,18.57
2022-12-13T02:00:38.145Z,15.43
2022-12-13T02:03:09.514Z,17.17
2022-12-13T02:06:08.125Z,16.90
2022-12-13T02:08:37.104Z,15.77
2022-12-13T02:11:06.718Z,17.90
2022-12-13T02:13:33.930Z,15.27
2022-12-13T02:16:29.337Z,17.53
2022-12-13T02:19:31.741Z,15.37
2022-12-13T02:22:16.841Z,18.27
2022-12-13T02:25:10.589Z,17.20
2022-12-13T02:28:03.144Z,16.70
2022-12-13T02:31:17.754Z,17.77
2022-12-13T02:34:09.931Z,16.87
2022-12-13T02:36:58.668Z,13.20
2022-12-13T02:39:39.517Z,14.23
2022-12-13T02:42:27.899Z,14.40
2022-12-13T02:45:17.206Z,13.57
2022-12-13T02:47:52.443Z,19.10
2022-12-13T02:50:21.956Z,17.23
2022-12-13T02:52:51.486Z,20.27
2022-12-13T02:55:19.109Z,19.23
2022-12-13T02:57:46.652Z,20.63
2022-12-13T03:00:21.142Z,17.53
2022-12-13T03:03:00.624Z,21.70
2022-12-13T03:06:16.582Z,20.50
2022-12-13T03:08:58.401Z,19.10
2022-12-13T03:12:14.575Z,21.00
2022-12-13T03:15:01.612Z,19.73
2022-12-13T03:17:43.934Z,19.67
2022-12-13T03:20:22.931Z,17.83
2022-12-13T03:22:52.555Z,19.10
2022-12-13T03:25:31.505Z,17.83
2022-12-13T03:28:02.437Z,19.37
2022-12-13T03:30:33.089Z,18.33
2022-12-13T03:33:01.468Z,17.47
2022-12-13T03:35:34.122Z,19.10
2022-12-13T03:38:22.576Z,21.57
2022-12-13T03:40:55.435Z,18.47
2022-12-13T03:43:23.737Z,19.97
2022-12-13T03:45:54.383Z,18.90
2022-12-13T03:48:23.933Z,18.37
2022-12-13T03:50:54.276Z,19.50
2022-12-13T03:53:32.642Z,22.80
2022-12-13T03:56:06.990Z,20.33
2022-12-13T03:58:37.920Z,20.93
2022-12-13T04:01:09.928Z,18.90
2022-12-13T04:03:40.361Z,20.50
2022-12-13T04:06:08.638Z,21.23
2022-12-13T04:08:37.859Z,22.67
2022-12-13T04:11:25.359Z,20.50
2022-12-13T04:13:54.655Z,19.83
2022-12-13T04:16:23.752Z,21.43
2022-12-13T04:18:51.453Z,20.03
2022-12-13T04:21:18.700Z,21.83
2022-12-13T04:23:46.250Z,26.20
2022-12-13T04:26:13.710Z,20.13
2022-12-13T04:28:41.289Z,20.03
2022-12-13T04:31:08.789Z,19.93
2022-12-13T04:33:36.687Z,19.40
2022-12-13T04:36:04.526Z,19.47
2022-12-13T04:38:32.004Z,17.70
2022-12-13T04:41:13.493Z,21.93
2022-12-13T04:43:40.940Z,16.37
2022-12-13T04:46:08.641Z,19.83
2022-12-13T04:48:36.110Z,18.47
2022-12-13T04:51:03.417Z,19.83
2022-12-13T04:53:31.075Z,19.83
2022-12-13T04:55:59.701Z,19.00
2022-12-13T04:58:28.334Z,20.33
2022-12-13T05:00:55.816Z,17.67
2022-12-13T05:03:24.133Z,16.00
2022-12-13T05:05:51.453Z,16.57
2022-12-13T05:08:19.220Z,14.93
2022-12-13T05:10:46.484Z,17.50
2022-12-13T05:13:14.053Z,17.27
2022-12-13T05:15:41.287Z,17.80
2022-12-13T05:18:11.026Z,15.97
2022-12-13T05:20:39.815Z,17.43
2022-12-13T05:23:07.783Z,16.83
2022-12-13T05:25:37.188Z,17.93
2022-12-13T05:28:09.036Z,22.73
2022-12-13T05:30:53.736Z,22.13
2022-12-13T05:33:22.429Z,17.37
2022-12-13T05:35:50.017Z,16.60
2022-12-13T05:38:18.294Z,15.17
2022-12-13T05:40:45.566Z,16.40
2022-12-13T05:43:21.463Z,20.00
2022-12-13T05:45:50.737Z,19.90
2022-12-13T05:48:24.812Z,19.70
2022-12-13T05:51:09.971Z,17.47
2022-12-13T05:53:41.537Z,17.20
2022-12-13T05:56:11.662Z,16.77
2022-12-13T05:58:41.399Z,19.17
2022-12-13T06:01:13.424Z,20.97
2022-12-13T06:03:42.400Z,17.77
2022-12-13T06:06:12.643Z,19.77
2022-12-13T06:08:40.725Z,17.73
2022-12-13T06:11:09.916Z,18.53
2022-12-13T06:13:44.131Z,19.97
2022-12-13T06:16:22.237Z,19.97
2022-12-13T06:19:00.978Z,20.40
2022-12-13T06:21:43.833Z,19.80
2022-12-13T06:24:19.997Z,19.13
2022-12-13T06:26:47.444Z,21.27
2022-12-13T06:29:23.053Z,18.60
2022-12-13T06:32:02.825Z,24.07
2022-12-13T06:34:34.661Z,28.93
2022-12-13T06:37:07.184Z,17.23
2022-12-13T06:39:35.372Z,20.43
2022-12-13T06:42:06.633Z,19.23
2022-12-13T06:44:35.426Z,19.97
2022-12-13T06:47:11.352Z,20.47
2022-12-13T06:49:43.960Z,20.77
2022-12-13T06:52:13.548Z,19.13
2022-12-13T06:54:42.980Z,17.60
2022-12-13T06:57:12.216Z,20.23
2022-12-13T06:59:40.187Z,18.57
2022-12-13T07:02:24.342Z,19.60
2022-12-13T07:04:54.756Z,17.50
2022-12-13T07:07:23.320Z,19.47
2022-12-13T07:09:50.831Z,19.67
2022-12-13T07:12:19.344Z,23.00
2022-12-13T07:14:46.950Z,25.20
2022-12-13T07:17:32.407Z,26.77
2022-12-13T07:20:08.560Z,23.00
2022-12-13T07:22:44.798Z,26.50
2022-12-13T07:25:27.636Z,26.63
2022-12-13T07:28:03.001Z,23.17
2022-12-13T07:30:41.056Z,22.13
2022-12-13T07:33:09.938Z,25.63
2022-12-13T07:35:37.877Z,19.37
2022-12-13T07:38:10.886Z,20.57
2022-12-13T07:40:40.591Z,22.20
2022-12-13T07:43:09.748Z,24.80
2022-12-13T07:45:37.191Z,25.23
2022-12-13T07:48:06.415Z,23.03
2022-12-13T07:50:37.556Z,25.60
2022-12-13T07:53:08.297Z,27.53
2022-12-13T07:55:37.138Z,26.13
2022-12-13T07:58:10.283Z,34.23
2022-12-13T08:00:41.366Z,32.97
2022-12-13T08:03:24.170Z,28.00
2022-12-13T08:06:11.304Z,29.63
2022-12-13T08:08:39.614Z,54.07
2022-12-13T08:11:13.607Z,56.80
2022-12-13T08:13:41.555Z,31.73
2022-12-13T08:16:27.657Z,27.23
2022-12-13T08:19:01.951Z,26.73
2022-12-13T08:21:58.281Z,21.70
2022-12-13T08:24:30.822Z,25.00
2022-12-13T08:27:02.051Z,24.83
2022-12-13T08:29:33.967Z,30.07
2022-12-13T08:32:12.043Z,31.67
2022-12-13T08:34:42.097Z,20.80
2022-12-13T08:37:09.945Z,18.30
2022-12-13T08:39:39.716Z,19.52
2022-12-13T08:42:19.551Z,22.73
2022-12-13T08:44:50.871Z,22.00
2022-12-13T08:47:26.379Z,23.30
2022-12-13T08:50:02.336Z,24.17
2022-12-13T08:52:39.801Z,22.10
2022-12-13T08:55:14.613Z,21.83
2022-12-13T08:57:43.892Z,21.50
2022-12-13T09:00:16.155Z,24.13
2022-12-13T09:02:44.253Z,27.37
2022-12-13T09:05:13.277Z,23.47
2022-12-13T09:08:02.831Z,22.20
2022-12-13T09:10:31.072Z,28.40
2022-12-13T09:13:11.505Z,22.80
2022-12-13T09:15:45.866Z,23.30
2022-12-13T09:18:15.117Z,21.63
2022-12-13T09:20:43.032Z,20.60
2022-12-13T09:23:22.932Z,21.92
2022-12-13T09:25:56.289Z,22.63
2022-12-13T09:28:37.042Z,24.08
2022-12-13T09:31:19.243Z,23.05
2022-12-13T09:33:47.094Z,20.17
2022-12-13T09:36:19.241Z,18.57
2022-12-13T09:38:47.405Z,20.20
2022-12-13T09:42:00.985Z,17.60
2022-12-13T09:44:43.937Z,22.02
2022-12-13T09:47:34.983Z,16.00
2022-12-13T09:50:14.775Z,19.60
2022-12-13T09:52:46.215Z,21.45
2022-12-13T09:55:25.624Z,25.38
2022-12-13T09:57:53.403Z,21.83
2022-12-13T10:00:25.943Z,25.42
2022-12-13T10:02:58.954Z,22.25
2022-12-13T10:05:39.565Z,22.60
2022-12-13T10:08:16.729Z,26.25
2022-12-13T10:10:45.446Z,25.57
2022-12-13T10:13:28.175Z,27.05
2022-12-13T10:16:04.783Z,25.10
2022-12-13T10:18:38.668Z,26.45
2022-12-13T10:21:40.597Z,20.87
2022-12-13T10:24:32.864Z,22.97
2022-12-13T10:27:17.797Z,25.58
2022-12-13T10:30:12.807Z,34.37
2022-12-13T10:33:06.169Z,28.25
2022-12-13T10:35:36.865Z,31.40
2022-12-13T10:38:32.008Z,30.98
2022-12-13T10:41:00.953Z,34.47
2022-12-13T10:43:32.976Z,27.60
2022-12-13T10:46:02.202Z,25.90
2022-12-13T10:48:50.644Z,35.65
2022-12-13T10:51:22.281Z,23.63
2022-12-13T10:54:00.813Z,25.15
2022-12-13T10:56:47.754Z,22.98
2022-12-13T10:59:18.224Z,25.17
2022-12-13T11:01:45.547Z,20.98
2022-12-13T11:04:29.726Z,17.70
2022-12-13T11:07:00.528Z,20.58
2022-12-13T11:09:38.642Z,21.67
2022-12-13T11:12:17.956Z,20.20
2022-12-13T11:15:01.939Z,17.80
2022-12-13T11:17:34.659Z,24.65
2022-12-13T11:20:30.188Z,30.90
2022-12-13T11:23:39.373Z,25.27
2022-12-13T11:26:14.816Z,21.30
2022-12-13T11:29:20.230Z,32.38
2022-12-13T11:32:12.761Z,38.53
2022-12-13T11:35:16.540Z,41.23
2022-12-13T11:38:30.575Z,36.72
2022-12-13T11:41:11.413Z,29.23
2022-12-13T11:44:04.155Z,33.90
2022-12-13T11:46:55.980Z,29.38
2022-12-13T11:49:38.816Z,24.15
2022-12-13T11:52:18.224Z,26.30
2022-12-13T11:54:57.489Z,24.37
2022-12-13T11:57:44.720Z,29.83
2022-12-13T12:00:44.480Z,29.45
2022-12-13T12:03:40.068Z,26.63
2022-12-13T12:06:21.582Z,37.47
2022-12-13T12:08:58.913Z,23.93
2022-12-13T12:12:16.556Z,32.60
2022-12-13T12:15:17.257Z,27.50
2022-12-13T12:17:45.358Z,23.17
2022-12-13T12:20:23.909Z,24.20
2022-12-13T12:23:25.686Z,27.07
2022-12-13T12:26:09.002Z,27.77
2022-12-13T12:29:39.794Z,19.73
2022-12-13T12:32:19.278Z,24.13
2022-12-13T12:35:55.221Z,30.90
2022-12-13T12:38:44.425Z,31.10
2022-12-13T12:41:45.236Z,33.13
2022-12-13T12:44:39.849Z,35.53
2022-12-13T12:48:46.292Z,66.77
2022-12-13T12:50:37.310Z,46.70
2022-12-13T12:53:31.723Z,57.57
2022-12-13T12:56:39.403Z,34.47
2022-12-13T12:59:27.743Z,44.20
2022-12-13T13:02:14.648Z,35.57
2022-12-13T13:04:57.361Z,37.97
2022-12-13T13:07:40.377Z,31.67
2022-12-13T13:10:16.760Z,40.07
2022-12-13T13:13:12.490Z,32.87
2022-12-13T13:15:40.688Z,31.73
2022-12-13T13:18:47.523Z,32.83
2022-12-13T13:21:24.004Z,31.80
2022-12-13T13:24:09.223Z,30.43
2022-12-13T13:26:48.335Z,27.30
2022-12-13T13:29:27.194Z,27.37
2022-12-13T13:32:29.534Z,29.53
2022-12-13T13:35:43.547Z,31.13
2022-12-13T13:38:17.004Z,31.70
2022-12-13T13:40:44.254Z,32.97
2022-12-13T13:43:11.789Z,34.17
2022-12-13T13:46:03.254Z,34.63
2022-12-13T13:49:04.535Z,29.73
2022-12-13T13:55:12.971Z,28.37
2022-12-13T13:58:11.117Z,28.33
2022-12-13T14:01:23.008Z,25.57
2022-12-13T14:04:09.075Z,29.00
2022-12-13T14:07:09.600Z,30.50
2022-12-13T14:10:23.675Z,34.30
2022-12-13T14:13:23.571Z,30.97
2022-12-13T14:16:41.663Z,36.43
2022-12-13T14:19:42.819Z,36.47
2022-12-13T14:22:50.177Z,34.37
2022-12-13T14:26:03.677Z,40.27
2022-12-13T14:28:52.026Z,39.37
2022-12-13T14:31:30.937Z,38.13
2022-12-13T14:34:01.580Z,38.73
2022-12-13T14:36:35.412Z,39.13
2022-12-13T14:39:16.323Z,37.83
2022-12-13T14:41:56.305Z,38.37
2022-12-13T14:44:34.495Z,32.70
2022-12-13T14:47:07.543Z,32.47
2022-12-13T14:49:41.764Z,38.80
2022-12-13T14:52:26.196Z,38.40
2022-12-13T14:55:04.777Z,45.17
2022-12-13T14:57:35.195Z,47.17
2022-12-13T15:00:28.734Z,40.10
2022-12-13T15:03:01.469Z,45.97
2022-12-13T15:05:44.305Z,41.63
2022-12-13T15:08:19.638Z,43.20
2022-12-13T15:10:52.176Z,46.87
2022-12-13T15:13:53.000Z,42.83
2022-12-13T15:16:28.633Z,43.53
2022-12-13T15:19:30.943Z,47.00
2022-12-13T15:22:13.144Z,49.90
2022-12-13T15:24:47.119Z,50.47
2022-12-13T15:27:17.467Z,55.77
2022-12-13T15:29:47.556Z,51.53
2022-12-13T15:32:19.289Z,54.70
2022-12-13T15:34:47.800Z,48.20
2022-12-13T15:37:29.136Z,57.83
2022-12-13T15:40:08.864Z,59.73
2022-12-13T15:42:43.704Z,54.90
2022-12-13T15:45:31.778Z,58.07
2022-12-13T15:48:05.558Z,55.00
2022-12-13T15:50:45.513Z,61.47
2022-12-13T15:53:28.040Z,56.10
2022-12-13T15:55:56.012Z,59.63
2022-12-13T15:58:33.698Z,62.70
2022-12-13T16:01:05.921Z,67.40
2022-12-13T16:03:44.724Z,68.83
2022-12-13T16:06:23.793Z,67.97
2022-12-13T16:08:57.028Z,79.40
2022-12-13T16:12:07.293Z,75.13
2022-12-13T16:14:48.900Z,84.47
2022-12-13T16:17:27.429Z,89.63
2022-12-13T16:20:02.115Z,90.10
2022-12-13T16:22:33.562Z,87.23
2022-12-13T16:25:00.752Z,97.50
2022-12-13T16:27:28.512Z,111.83
2022-12-13T16:29:55.953Z,100.80
2022-12-13T16:32:23.629Z,100.73
2022-12-13T16:34:50.940Z,99.20
2022-12-13T16:37:26.510Z,95.60
2022-12-13T16:39:55.371Z,98.00
2022-12-13T16:42:27.053Z,100.07
2022-12-13T16:45:40.564Z,104.43
2022-12-13T16:47:49.513Z,94.43
2022-12-13T16:50:21.577Z,94.67
2022-12-13T16:52:49.776Z,99.53
2022-12-13T16:55:17.367Z,77.97
2022-12-13T16:57:55.522Z,76.33
2022-12-13T17:00:23.102Z,74.80
2022-12-13T17:02:51.121Z,72.17
2022-12-13T17:05:18.820Z,67.43
2022-12-13T17:07:46.775Z,42.87
2022-12-13T17:10:14.804Z,42.73
2022-12-13T17:12:42.628Z,39.80
2022-12-13T17:15:11.821Z,45.23
2022-12-13T17:17:43.183Z,54.23
2022-12-13T17:20:17.287Z,47.27
2022-12-13T17:22:45.791Z,41.83
2022-12-13T17:25:14.338Z,30.50
2022-12-13T17:27:42.654Z,29.50
2022-12-13T17:30:15.895Z,25.97
2022-12-13T17:32:44.268Z,21.13
2022-12-13T17:35:17.918Z,21.33
2022-12-13T17:37:46.306Z,26.60
2022-12-13T17:40:13.678Z,42.53
2022-12-13T17:42:41.261Z,37.43
2022-12-13T17:45:09.001Z,38.00
2022-12-13T17:47:36.740Z,30.93
2022-12-13T17:50:04.383Z,34.27
2022-12-13T17:52:31.906Z,33.53
2022-12-13T17:55:01.006Z,27.13
2022-12-13T17:57:28.552Z,24.07
2022-12-13T17:59:55.781Z,27.67
2022-12-13T18:02:23.416Z,19.70
2022-12-13T18:04:50.869Z,21.70
2022-12-13T18:07:19.324Z,30.93
2022-12-13T18:09:46.601Z,32.37
2022-12-13T18:12:15.735Z,31.93
2022-12-13T18:14:43.703Z,32.90
2022-12-13T18:17:11.228Z,39.93
2022-12-13T18:19:38.407Z,44.23
2022-12-13T18:22:05.945Z,49.20
2022-12-13T18:24:33.152Z,47.93
2022-12-13T18:27:00.739Z,47.07
2022-12-13T18:29:28.012Z,48.57
2022-12-13T18:31:55.694Z,43.57
2022-12-13T18:34:22.946Z,47.20
2022-12-13T18:36:50.509Z,44.57
2022-12-13T18:39:18.085Z,47.30
2022-12-13T18:41:45.683Z,43.40
2022-12-13T18:44:13.646Z,47.47
2022-12-13T18:46:45.762Z,49.20
2022-12-13T18:49:13.493Z,50.20
2022-12-13T18:51:41.017Z,44.30
2022-12-13T18:54:08.288Z,49.20
2022-12-13T18:56:35.834Z,51.47
2022-12-13T18:59:03.113Z,46.93
2022-12-13T19:01:31.343Z,51.07
2022-12-13T19:03:58.772Z,42.03
2022-12-13T19:06:28.326Z,45.67
2022-12-13T19:08:58.150Z,45.97
2022-12-13T19:11:28.100Z,49.33
2022-12-13T19:13:55.595Z,53.80
2022-12-13T19:16:24.859Z,47.33
2022-12-13T19:18:52.611Z,53.70
2022-12-13T19:21:22.456Z,49.53
2022-12-13T19:23:57.042Z,53.27
2022-12-13T19:26:29.470Z,46.33
2022-12-13T19:28:59.055Z,49.13
2022-12-13T19:31:31.879Z,49.97
2022-12-13T19:34:03.693Z,60.43
2022-12-13T19:36:32.832Z,61.63
2022-12-13T19:39:01.089Z,59.97
2022-12-13T19:41:29.712Z,62.33
2022-12-13T19:43:57.077Z,58.50
2022-12-13T19:46:24.857Z,55.17
2022-12-13T19:48:52.413Z,53.90
2022-12-13T19:51:20.070Z,50.60
2022-12-13T19:53:47.467Z,50.97
2022-12-13T19:56:19.430Z,50.07
2022-12-13T19:58:49.221Z,47.23
2022-12-13T20:01:18.157Z,49.40
2022-12-13T20:03:46.782Z,53.33
2022-12-13T20:06:22.288Z,49.37
2022-12-13T20:08:50.937Z,50.07
2022-12-13T20:11:23.129Z,48.00
2022-12-13T20:13:55.032Z,47.47
2022-12-13T20:16:26.000Z,40.60
2022-12-13T20:18:59.160Z,51.20
2022-12-13T20:21:28.770Z,52.50
2022-12-13T20:23:57.872Z,57.30
2022-12-13T20:26:30.212Z,65.83
2022-12-13T20:28:58.022Z,75.80
2022-12-13T20:31:32.746Z,58.40
2022-12-13T20:34:04.715Z,46.50
2022-12-13T20:36:32.933Z,49.97
2022-12-13T20:39:02.594Z,52.00
2022-12-13T20:41:34.213Z,45.20
2022-12-13T20:44:04.508Z,38.60
2022-12-13T20:46:33.012Z,36.17
2022-12-13T20:49:04.095Z,37.77
2022-12-13T20:51:33.531Z,37.70
2022-12-13T20:54:01.095Z,42.03
2022-12-13T20:56:34.485Z,37.07
2022-12-13T20:59:04.509Z,36.10
2022-12-13T21:01:37.917Z,28.90
2022-12-13T21:04:07.825Z,35.13
2022-12-13T21:06:40.705Z,36.10
2022-12-13T21:09:10.895Z,42.00
2022-12-13T21:11:47.924Z,40.50
2022-12-13T21:14:21.194Z,41.13
2022-12-13T21:16:57.994Z,40.60
2022-12-13T21:19:39.070Z,43.63
2022-12-13T21:22:07.984Z,47.67
2022-12-13T21:24:35.309Z,49.90
2022-12-13T21:27:02.873Z,49.23
2022-12-13T21:29:30.063Z,69.17
2022-12-13T21:31:57.696Z,62.87
2022-12-13T21:34:25.095Z,70.17
2022-12-13T21:36:53.441Z,78.77
2022-12-13T21:39:24.838Z,89.13
2022-12-13T21:41:52.581Z,105.27
2022-12-13T21:44:20.596Z,105.10
2022-12-13T21:49:36.488Z,95.57
2022-12-13T21:52:04.198Z,92.30
2022-12-13T21:54:31.539Z,60.77
2022-12-13T21:57:17.739Z,63.50
2022-12-13T21:59:46.004Z,74.93
2022-12-13T22:02:18.492Z,68.87
2022-12-13T22:04:55.776Z,51.93
2022-12-13T22:07:32.795Z,64.47
2022-12-13T22:10:02.205Z,56.80
2022-12-13T22:12:39.718Z,91.50
2022-12-13T22:15:12.059Z,83.07
2022-12-13T22:17:41.271Z,121.63
2022-12-13T22:20:13.766Z,125.87
2022-12-13T22:22:44.233Z,110.70
2022-12-13T22:25:11.722Z,128.60
2022-12-13T22:27:39.345Z,113.67
2022-12-13T22:30:07.659Z,117.40
2022-12-13T22:32:35.324Z,115.27
2022-12-13T22:35:02.661Z,101.03
2022-12-13T22:37:30.396Z,89.63
2022-12-13T22:39:57.619Z,87.07
2022-12-13T22:42:25.209Z,84.90
2022-12-13T22:44:52.405Z,90.30
2022-12-13T22:47:19.853Z,89.43
2022-12-13T22:49:48.702Z,90.27
2022-12-13T22:52:17.332Z,86.90
2022-12-13T22:54:44.550Z,92.33
2022-12-13T22:57:12.146Z,94.37
2022-12-13T22:59:39.336Z,96.83
2022-12-13T23:02:07.774Z,96.77
2022-12-13T23:04:35.163Z,99.47
2022-12-13T23:07:02.678Z,96.53
2022-12-13T23:09:29.874Z,95.17
2022-12-13T23:12:16.139Z,97.13
2022-12-13T23:14:43.362Z,98.63
2022-12-13T23:17:10.907Z,94.97
2022-12-13T23:19:50.827Z,94.13
2022-12-13T23:22:23.799Z,98.23
2022-12-13T23:24:53.085Z,95.57
2022-12-13T23:27:24.854Z,94.47
2022-12-13T23:29:52.231Z,90.27
2022-12-13T23:32:19.804Z,88.67
2022-12-13T23:34:47.077Z,86.90
2022-12-13T23:37:14.593Z,110.50
2022-12-13T23:39:41.790Z,85.90
2022-12-13T23:42:09.699Z,109.10
2022-12-13T23:44:36.940Z,117.67
2022-12-13T23:47:04.661Z,101.37
2022-12-13T23:49:32.412Z,102.93
2022-12-13T23:51:59.867Z,125.27
2022-12-13T23:54:27.228Z,109.17
2022-12-13T23:56:54.771Z,102.40
2022-12-13T23:59:21.990Z,99.47
